Time;durP1;ratioP1;P1;durP2;ratioP2;P2;SDS_P1;SDS_P2;PMS_P1;PMS_P2;Temp;Humidity;BMP_temperature;BMP_pressure;BME280_temperature;BME280_humidity;BME280_pressure;Samples;Min_cycle;Max_cycle;Signal;HPM_P1;HPM_P2
2022/09/16 00:00:30;;;;;;;2.25;1.55;;;10.30;99.90;;;;;;5043498;28;20022;-47
2022/09/16 00:02:56;;;;;;;3.17;0.95;;;10.30;99.90;;;;;;5038656;28;20091;-46
2022/09/16 00:05:22;;;;;;;2.92;1.35;;;10.30;99.90;;;;;;5045511;28;20422;-47
2022/09/16 00:07:47;;;;;;;7.85;1.67;;;10.20;99.90;;;;;;5038482;28;20021;-50
2022/09/16 00:10:13;;;;;;;4.18;0.93;;;10.20;99.90;;;;;;5047672;28;20146;-46
2022/09/16 00:12:39;;;;;;;4.80;1.25;;;10.20;99.90;;;;;;5040024;28;20351;-48
2022/09/16 00:15:05;;;;;;;4.18;1.15;;;10.20;99.90;;;;;;5047352;28;20024;-45
2022/09/16 00:17:31;;;;;;;5.25;1.38;;;10.20;99.90;;;;;;5042853;28;20022;-47
2022/09/16 00:19:57;;;;;;;4.43;1.15;;;10.20;99.90;;;;;;5038937;28;20029;-46
2022/09/16 00:22:23;;;;;;;7.03;1.70;;;10.20;99.90;;;;;;5045580;28;20028;-46
2022/09/16 00:24:49;;;;;;;8.93;1.60;;;10.20;99.90;;;;;;5035696;28;20025;-46
2022/09/16 00:27:15;;;;;;;5.65;1.52;;;10.20;99.90;;;;;;5026894;28;20044;-46
2022/09/16 00:29:40;;;;;;;2.83;1.10;;;10.20;99.90;;;;;;5040824;28;20057;-49
2022/09/16 00:32:06;;;;;;;7.10;1.52;;;10.20;99.90;;;;;;5045144;28;20056;-46
2022/09/16 00:34:31;;;;;;;4.28;1.20;;;10.20;99.90;;;;;;5043583;28;20025;-47
2022/09/16 00:36:57;;;;;;;3.45;1.00;;;10.20;99.90;;;;;;5038658;28;20022;-47
2022/09/16 00:39:23;;;;;;;6.15;1.70;;;10.30;99.90;;;;;;5026465;28;20788;-48
2022/09/16 00:41:48;;;;;;;4.70;1.15;;;10.30;99.90;;;;;;5040063;28;20029;-47
2022/09/16 00:44:48;;;;;;;5.88;1.65;;;10.30;99.90;;;;;;5045165;28;20025;-48
2022/09/16 00:47:17;;;;;;;2.97;1.50;;;10.40;99.90;;;;;;5041824;28;20079;-48
2022/09/16 00:49:42;;;;;;;4.38;1.50;;;10.40;99.90;;;;;;5045988;28;20033;-49
2022/09/16 00:52:09;;;;;;;5.65;1.75;;;10.50;99.90;;;;;;5046848;22;20507;-83
2022/09/16 00:54:37;;;;;;;3.60;1.20;;;10.50;99.90;;;;;;5022357;28;20033;-82
2022/09/16 00:57:06;;;;;;;2.60;1.48;;;10.50;99.90;;;;;;5048330;28;20029;-83
2022/09/16 00:59:36;;;;;;;5.35;1.40;;;10.50;99.90;;;;;;5021325;28;20439;-83
2022/09/16 01:02:10;;;;;;;4.55;2.22;;;10.50;99.90;;;;;;5014922;28;20512;-83
2022/09/16 01:05:03;;;;;;;6.38;1.65;;;10.40;99.90;;;;;;5004947;28;20033;-83
2022/09/16 01:07:47;;;;;;;6.22;1.58;;;10.40;99.90;;;;;;4993263;28;20026;-83
2022/09/16 01:10:16;;;;;;;3.67;1.55;;;10.40;99.90;;;;;;5007332;28;20392;-84
2022/09/16 01:12:49;;;;;;;5.93;1.00;;;10.40;99.90;;;;;;5009430;28;20022;-83
2022/09/16 01:15:16;;;;;;;3.72;1.33;;;10.40;99.90;;;;;;5010634;28;20034;-83
2022/09/16 01:18:08;;;;;;;4.28;1.27;;;10.40;99.90;;;;;;5034540;28;20040;-83
2022/09/16 01:20:55;;;;;;;3.90;1.00;;;10.40;99.90;;;;;;5017261;28;20104;-83
2022/09/16 01:23:58;;;;;;;0.80;0.80;;;10.40;99.90;;;;;;5016549;28;20030;-82
2022/09/16 01:26:36;;;;;;;4.00;1.15;;;10.40;99.90;;;;;;5015626;28;20029;-83
2022/09/16 01:29:39;;;;;;;3.88;1.15;;;10.40;99.90;;;;;;5018349;28;20025;-83
2022/09/16 01:32:18;;;;;;;6.45;1.27;;;10.40;99.90;;;;;;5011359;28;20469;-82
2022/09/16 01:35:07;;;;;;;3.85;1.17;;;10.40;99.90;;;;;;4998612;28;20029;-84
2022/09/16 01:38:24;;;;;;;3.28;0.90;;;10.40;99.90;;;;;;4998526;28;20022;-83
2022/09/16 01:41:34;;;;;;;2.53;0.80;;;10.40;99.90;;;;;;4965786;28;20038;-83
2022/09/16 01:44:22;;;;;;;2.00;1.25;;;10.30;99.90;;;;;;5018193;28;20115;-84
2022/09/16 01:47:01;;;;;;;2.00;0.80;;;10.30;99.90;;;;;;5009723;28;20033;-83
2022/09/16 01:49:56;;;;;;;3.17;0.95;;;10.30;99.90;;;;;;4998244;28;20033;-84
2022/09/16 01:52:31;;;;;;;2.58;1.33;;;10.30;99.90;;;;;;4992935;28;20033;-83
2022/09/16 01:55:17;;;;;;;3.28;1.00;;;10.30;99.90;;;;;;5035836;28;20111;-84
2022/09/16 02:01:31;;;;;;;8.02;1.38;;;10.30;99.90;;;;;;5165404;22;20034;-54
2022/09/16 02:04:02;;;;;;;3.42;0.90;;;10.20;99.90;;;;;;5005125;28;20115;-52
2022/09/16 02:06:30;;;;;;;4.57;1.33;;;10.20;99.90;;;;;;5023644;28;20452;-55
2022/09/16 02:09:07;;;;;;;4.88;1.58;;;10.20;99.90;;;;;;5022057;28;20025;-52
2022/09/16 02:11:35;;;;;;;3.55;1.23;;;10.20;99.90;;;;;;5023461;28;20034;-54
2022/09/16 02:14:17;;;;;;;6.93;1.95;;;10.20;99.90;;;;;;5022725;28;20510;-53
2022/09/16 02:16:53;;;;;;;6.75;2.00;;;10.20;99.90;;;;;;5023723;28;20036;-53
2022/09/16 02:19:36;;;;;;;3.55;1.20;;;10.20;99.90;;;;;;5017029;28;20033;-53
2022/09/16 02:22:07;;;;;;;4.47;1.95;;;10.20;99.90;;;;;;5025519;28;20047;-51
2022/09/16 02:24:35;;;;;;;4.78;1.38;;;10.20;99.90;;;;;;5019911;28;20507;-53
2022/09/16 02:27:07;;;;;;;4.65;1.60;;;10.20;99.90;;;;;;5020863;28;20021;-52
2022/09/16 02:29:51;;;;;;;4.85;1.42;;;10.20;99.90;;;;;;5020207;28;20079;-52
2022/09/16 02:32:20;;;;;;;3.42;1.55;;;10.20;99.90;;;;;;5011420;28;20022;-53
2022/09/16 02:34:49;;;;;;;6.18;2.22;;;10.30;99.90;;;;;;5023433;28;20105;-54
2022/09/16 02:37:21;;;;;;;2.63;1.33;;;10.30;99.90;;;;;;4999535;28;20100;-52
2022/09/16 02:39:49;;;;;;;2.17;1.10;;;10.20;99.90;;;;;;5013727;28;20447;-56
2022/09/16 02:42:15;;;;;;;2.53;1.42;;;10.20;99.90;;;;;;5010158;28;20024;-54
2022/09/16 02:44:43;;;;;;;3.97;1.42;;;10.20;99.90;;;;;;5021775;28;20083;-54
2022/09/16 02:47:27;;;;;;;4.80;1.77;;;10.20;99.90;;;;;;5024373;28;20484;-56
2022/09/16 02:49:56;;;;;;;4.47;2.05;;;10.20;99.90;;;;;;5020065;28;20484;-56
2022/09/16 02:52:35;;;;;;;3.53;1.75;;;10.20;99.90;;;;;;5015970;28;20025;-52
2022/09/16 02:55:22;;;;;;;2.60;1.80;;;10.20;99.90;;;;;;5013545;28;20029;-53
2022/09/16 02:57:49;;;;;;;4.25;2.40;;;10.20;99.90;;;;;;5024722;28;20018;-54
2022/09/16 03:00:14;;;;;;;3.78;1.38;;;10.20;99.90;;;;;;5020525;28;20060;-55
2022/09/16 03:02:40;;;;;;;4.72;2.03;;;10.20;99.90;;;;;;5020152;28;20077;-53
2022/09/16 03:05:08;;;;;;;2.22;1.45;;;10.20;99.90;;;;;;5021646;28;20537;-52
2022/09/16 03:07:34;;;;;;;5.43;1.75;;;10.20;99.90;;;;;;5021941;28;20043;-56
2022/09/16 03:10:00;;;;;;;1.65;1.55;;;10.20;99.90;;;;;;5020373;28;20017;-53
2022/09/16 03:12:40;;;;;;;3.25;1.65;;;10.20;99.90;;;;;;5023543;28;20018;-53
2022/09/16 03:15:32;;;;;;;4.22;1.45;;;10.20;99.90;;;;;;5020912;28;20034;-52
2022/09/16 03:18:07;;;;;;;2.55;1.40;;;10.20;99.90;;;;;;5020293;28;20014;-56
2022/09/16 03:20:42;;;;;;;4.88;2.00;;;10.30;99.90;;;;;;5022174;28;20017;-53
2022/09/16 03:23:20;;;;;;;3.25;1.25;;;10.30;99.90;;;;;;5019450;28;20341;-56
2022/09/16 03:26:03;;;;;;;7.22;1.80;;;10.20;99.90;;;;;;5021934;28;20116;-56
2022/09/16 03:28:44;;;;;;;5.47;1.17;;;10.20;99.90;;;;;;5016972;28;20438;-53
2022/09/16 03:31:14;;;;;;;1.80;0.70;;;10.20;99.90;;;;;;5018879;28;20022;-56
2022/09/16 03:33:54;;;;;;;5.55;1.20;;;10.10;99.90;;;;;;5018523;28;20030;-55
2022/09/16 03:36:25;;;;;;;5.18;1.10;;;10.10;99.90;;;;;;5013621;28;20113;-53
2022/09/16 03:38:53;;;;;;;2.40;1.17;;;10.10;99.90;;;;;;5001375;28;20034;-53
2022/09/16 03:41:20;;;;;;;4.93;1.98;;;10.10;99.90;;;;;;5006548;28;20080;-52
2022/09/16 03:43:57;;;;;;;1.92;1.10;;;10.10;99.90;;;;;;5014362;28;20104;-52
2022/09/16 03:46:25;;;;;;;2.25;1.67;;;10.00;99.90;;;;;;5012125;28;20029;-55
2022/09/16 03:48:51;;;;;;;5.10;1.10;;;10.00;99.90;;;;;;5015247;28;20022;-55
2022/09/16 03:51:17;;;;;;;3.90;1.75;;;10.00;99.90;;;;;;5021863;28;20353;-54
2022/09/16 03:53:43;;;;;;;4.93;1.08;;;10.00;99.90;;;;;;5019939;28;20033;-54
2022/09/16 03:56:08;;;;;;;1.60;0.90;;;10.00;99.90;;;;;;5020815;28;20270;-52
2022/09/16 03:58:34;;;;;;;6.07;1.15;;;10.00;99.90;;;;;;5021997;28;20511;-51
2022/09/16 04:00:59;;;;;;;3.65;2.15;;;10.00;99.90;;;;;;5019308;28;20413;-54
2022/09/16 04:03:25;;;;;;;2.80;1.23;;;10.00;99.90;;;;;;5021251;28;20073;-54
2022/09/16 04:05:55;;;;;;;5.45;2.25;;;10.00;99.90;;;;;;5018859;28;20048;-52
2022/09/16 04:08:21;;;;;;;2.83;1.13;;;10.00;99.90;;;;;;5021405;28;20049;-52
2022/09/16 04:11:01;;;;;;;4.00;1.20;;;10.00;99.90;;;;;;5020576;28;20026;-53
2022/09/16 04:13:30;;;;;;;4.65;1.52;;;10.00;99.90;;;;;;5011003;28;20380;-52
2022/09/16 04:15:56;;;;;;;4.28;1.30;;;10.00;99.90;;;;;;5020435;28;20495;-52
2022/09/16 04:18:22;;;;;;;4.88;1.67;;;10.00;99.90;;;;;;5021247;28;20025;-52
2022/09/16 04:20:47;;;;;;;4.00;1.42;;;9.90;99.90;;;;;;5019218;28;20030;-54
2022/09/16 04:23:13;;;;;;;1.20;0.82;;;9.90;99.90;;;;;;5020863;28;20022;-52
2022/09/16 04:25:39;;;;;;;3.80;1.20;;;9.80;99.90;;;;;;5021439;28;20037;-52
2022/09/16 04:28:06;;;;;;;2.88;1.10;;;9.80;99.90;;;;;;5019103;28;20494;-51
2022/09/16 04:30:32;;;;;;;2.00;1.05;;;9.80;99.90;;;;;;5003507;28;20030;-53
2022/09/16 04:32:57;;;;;;;6.65;1.25;;;9.70;99.90;;;;;;5002580;28;20043;-51
2022/09/16 04:35:24;;;;;;;2.75;1.10;;;9.80;99.90;;;;;;5021172;28;20017;-52
2022/09/16 04:37:50;;;;;;;3.40;1.10;;;9.70;99.90;;;;;;5019035;28;20017;-52
2022/09/16 04:40:16;;;;;;;4.20;0.98;;;9.80;99.90;;;;;;5021158;28;20483;-53
2022/09/16 04:42:47;;;;;;;5.32;1.48;;;9.70;99.90;;;;;;5020278;28;20041;-51
2022/09/16 04:45:12;;;;;;;2.08;1.40;;;9.70;99.90;;;;;;5003344;28;20136;-55
2022/09/16 04:47:38;;;;;;;2.00;1.23;;;9.70;99.90;;;;;;5021213;28;20472;-54
2022/09/16 04:50:04;;;;;;;3.03;1.50;;;9.70;99.90;;;;;;5020935;28;20018;-52
2022/09/16 04:52:30;;;;;;;4.90;1.40;;;9.70;99.90;;;;;;5020990;28;20018;-52
2022/09/16 04:54:55;;;;;;;3.65;1.17;;;9.70;99.90;;;;;;5018866;28;20387;-52
2022/09/16 04:57:21;;;;;;;2.80;1.20;;;9.70;99.90;;;;;;5024779;28;20025;-56
2022/09/16 04:59:46;;;;;;;4.07;1.33;;;9.70;99.90;;;;;;5023810;28;20438;-51
2022/09/16 05:02:12;;;;;;;3.53;1.70;;;9.70;99.90;;;;;;5023756;28;20146;-51
2022/09/16 05:04:37;;;;;;;6.22;2.47;;;9.70;99.90;;;;;;5025888;28;20029;-53
2022/09/16 05:07:03;;;;;;;2.72;1.30;;;9.70;99.90;;;;;;5022456;28;20076;-54
2022/09/16 05:09:28;;;;;;;3.40;1.30;;;9.70;99.90;;;;;;5025554;28;20029;-53
2022/09/16 05:11:54;;;;;;;4.53;1.17;;;9.70;99.90;;;;;;5023509;28;20033;-52
2022/09/16 05:14:19;;;;;;;3.70;1.35;;;9.70;99.90;;;;;;5024675;28;20028;-51
2022/09/16 05:16:45;;;;;;;1.63;0.90;;;9.70;99.90;;;;;;5024681;28;20030;-53
2022/09/16 05:19:12;;;;;;;4.28;1.10;;;9.70;99.90;;;;;;5021416;28;20033;-54
2022/09/16 05:21:39;;;;;;;4.47;1.02;;;9.70;99.90;;;;;;5025430;28;20079;-51
2022/09/16 05:24:07;;;;;;;5.53;1.92;;;9.70;99.90;;;;;;5022506;28;20442;-52
2022/09/16 05:26:35;;;;;;;5.57;1.48;;;9.80;99.90;;;;;;5026163;28;20487;-50
2022/09/16 05:29:03;;;;;;;1.85;1.23;;;9.80;99.90;;;;;;5022729;28;20033;-51
2022/09/16 05:31:31;;;;;;;3.88;1.30;;;9.80;99.90;;;;;;5019600;28;20021;-52
2022/09/16 05:34:03;;;;;;;3.00;1.08;;;9.80;99.90;;;;;;5023230;28;20083;-53
2022/09/16 05:36:31;;;;;;;4.78;1.23;;;9.80;99.90;;;;;;5020971;28;20025;-52
2022/09/16 05:38:57;;;;;;;8.80;2.38;;;9.80;99.90;;;;;;5027251;28;20022;-51
2022/09/16 05:41:23;;;;;;;6.63;1.30;;;9.80;99.90;;;;;;5022673;28;20034;-53
2022/09/16 05:43:49;;;;;;;2.78;1.15;;;9.70;99.90;;;;;;5028031;28;20053;-52
2022/09/16 05:46:20;;;;;;;4.28;1.40;;;9.80;99.90;;;;;;5016270;28;20030;-52
2022/09/16 05:48:47;;;;;;;4.10;1.10;;;9.80;99.90;;;;;;5028323;28;20480;-52
2022/09/16 05:51:15;;;;;;;4.88;1.63;;;9.80;99.90;;;;;;5020581;28;20026;-51
2022/09/16 05:53:41;;;;;;;4.70;1.48;;;9.80;99.90;;;;;;5020804;28;20034;-54
2022/09/16 05:56:11;;;;;;;3.33;1.27;;;9.80;99.90;;;;;;5026750;28;20033;-52
2022/09/16 05:58:38;;;;;;;2.45;1.17;;;9.80;99.90;;;;;;5020673;28;20053;-52
2022/09/16 06:01:28;;;;;;;2.50;1.15;;;9.80;99.90;;;;;;5023841;28;20029;-51
2022/09/16 06:03:56;;;;;;;4.15;1.45;;;9.80;99.90;;;;;;5021654;28;20447;-52
2022/09/16 06:06:33;;;;;;;4.55;2.10;;;9.80;99.90;;;;;;5023043;28;20447;-51
2022/09/16 06:09:06;;;;;;;4.80;1.42;;;9.80;99.90;;;;;;5022247;28;20117;-51
2022/09/16 06:11:34;;;;;;;5.25;1.63;;;9.80;99.90;;;;;;5023300;28;20022;-52
2022/09/16 06:14:00;;;;;;;2.97;1.77;;;9.80;99.90;;;;;;5022669;28;20033;-53
2022/09/16 06:16:27;;;;;;;6.00;1.60;;;9.90;99.90;;;;;;5023349;28;20022;-52
2022/09/16 06:18:54;;;;;;;7.40;1.45;;;10.00;99.90;;;;;;5023080;28;20043;-52
2022/09/16 06:21:20;;;;;;;3.30;1.20;;;10.00;99.90;;;;;;5022073;28;20021;-52
2022/09/16 06:23:46;;;;;;;3.58;1.38;;;10.00;99.90;;;;;;5023489;28;20494;-54
2022/09/16 06:26:14;;;;;;;2.53;0.80;;;10.00;99.90;;;;;;5021821;28;20108;-52
2022/09/16 06:28:40;;;;;;;5.50;1.25;;;10.00;99.90;;;;;;5023430;28;20021;-51
2022/09/16 06:31:24;;;;;;;4.78;1.48;;;10.00;99.90;;;;;;5022736;28;20057;-54
2022/09/16 06:33:51;;;;;;;2.95;1.20;;;10.00;99.90;;;;;;5023112;28;20419;-54
2022/09/16 06:36:22;;;;;;;3.92;1.38;;;10.10;99.90;;;;;;5020156;28;20018;-54
2022/09/16 06:38:48;;;;;;;5.07;1.27;;;10.10;99.90;;;;;;5025998;28;20022;-54
2022/09/16 06:41:16;;;;;;;3.88;1.38;;;10.10;99.90;;;;;;5016211;28;20475;-56
2022/09/16 06:43:42;;;;;;;4.00;1.63;;;10.20;99.90;;;;;;5025651;28;20030;-51
2022/09/16 06:46:17;;;;;;;5.72;1.77;;;10.20;99.90;;;;;;5020482;28;20479;-57
2022/09/16 06:48:49;;;;;;;12.90;2.40;;;10.20;99.90;;;;;;5026809;28;20025;-52
2022/09/16 06:51:17;;;;;;;3.55;1.80;;;10.20;99.90;;;;;;5014163;28;20050;-53
2022/09/16 06:53:44;;;;;;;4.85;1.20;;;10.30;99.90;;;;;;5061059;22;20049;-45
2022/09/16 06:56:11;;;;;;;5.40;1.40;;;10.40;99.90;;;;;;5064963;28;20029;-44
2022/09/16 06:58:40;;;;;;;4.50;0.98;;;10.30;99.90;;;;;;5058771;28;20036;-44
2022/09/16 07:01:14;;;;;;;1.25;0.73;;;10.40;99.90;;;;;;5062270;28;20507;-44
2022/09/16 07:03:42;;;;;;;5.53;1.30;;;10.40;99.90;;;;;;5060904;28;20037;-44
2022/09/16 07:06:09;;;;;;;6.57;1.38;;;10.50;99.90;;;;;;5060708;28;20025;-44
2022/09/16 07:08:35;;;;;;;5.15;1.17;;;10.60;99.90;;;;;;5062114;28;20024;-45
2022/09/16 07:11:05;;;;;;;4.10;1.50;;;10.60;99.90;;;;;;5060335;28;20013;-44
2022/09/16 07:13:31;;;;;;;3.65;1.25;;;10.70;99.90;;;;;;5063440;28;20271;-46
2022/09/16 07:16:01;;;;;;;6.65;1.52;;;10.80;99.90;;;;;;5060987;28;20021;-46
2022/09/16 07:18:29;;;;;;;3.42;0.70;;;11.00;99.90;;;;;;5060183;28;20036;-45
2022/09/16 07:21:18;;;;;;;4.07;1.20;;;11.10;99.90;;;;;;5059466;28;20095;-45
2022/09/16 07:23:44;;;;;;;7.30;0.93;;;11.20;99.90;;;;;;5061202;28;20027;-49
2022/09/16 07:26:12;;;;;;;3.60;0.77;;;11.40;99.90;;;;;;5041892;28;20016;-45
2022/09/16 07:28:40;;;;;;;7.93;1.27;;;11.30;99.90;;;;;;5061208;28;20037;-47
2022/09/16 07:31:08;;;;;;;7.80;1.27;;;11.30;99.90;;;;;;5042857;28;20107;-49
2022/09/16 07:33:36;;;;;;;4.65;0.95;;;11.30;99.90;;;;;;5061300;28;20029;-49
2022/09/16 07:36:04;;;;;;;8.75;0.88;;;11.30;99.90;;;;;;5059279;28;20033;-46
2022/09/16 07:38:31;;;;;;;6.32;1.38;;;11.40;99.90;;;;;;5043805;28;20067;-46
2022/09/16 07:41:10;;;;;;;7.03;1.67;;;11.50;99.90;;;;;;5060452;28;20036;-46
2022/09/16 07:43:36;;;;;;;11.02;2.03;;;11.60;99.90;;;;;;5057854;28;20070;-48
2022/09/16 07:46:02;;;;;;;5.25;1.23;;;11.70;99.90;;;;;;5064143;28;20074;-45
2022/09/16 07:48:30;;;;;;;7.32;1.38;;;11.80;99.90;;;;;;5062557;28;20028;-47
2022/09/16 07:51:02;;;;;;;4.93;1.40;;;11.90;99.90;;;;;;5060103;28;20111;-47
2022/09/16 07:53:29;;;;;;;3.97;0.98;;;12.10;99.90;;;;;;5057071;28;20407;-46
2022/09/16 07:55:59;;;;;;;5.45;1.45;;;12.10;99.90;;;;;;5063784;28;20024;-45
2022/09/16 07:58:25;;;;;;;2.58;1.55;;;12.10;99.90;;;;;;5057381;28;20040;-45
2022/09/16 08:00:51;;;;;;;5.18;1.25;;;12.10;99.90;;;;;;5059147;28;20017;-45
2022/09/16 08:03:16;;;;;;;7.95;1.13;;;12.20;99.90;;;;;;5060199;28;20711;-47
2022/09/16 08:05:43;;;;;;;5.93;1.73;;;12.30;99.90;;;;;;5059182;28;20096;-44
2022/09/16 08:08:08;;;;;;;3.08;0.95;;;12.50;99.90;;;;;;5060276;28;20021;-45
2022/09/16 08:10:35;;;;;;;4.60;1.10;;;12.60;99.90;;;;;;5062026;28;20382;-46
2022/09/16 08:13:05;;;;;;;7.68;1.85;;;12.70;99.90;;;;;;5059015;28;20017;-45
2022/09/16 08:15:31;;;;;;;5.63;1.17;;;12.80;99.90;;;;;;5063032;28;20020;-45
2022/09/16 08:17:57;;;;;;;9.07;1.73;;;13.00;99.90;;;;;;5058067;28;20040;-46
2022/09/16 08:20:24;;;;;;;6.55;1.90;;;13.10;99.90;;;;;;5060957;28;20062;-47
2022/09/16 08:22:49;;;;;;;7.63;1.25;;;13.00;99.90;;;;;;5058604;28;20021;-45
2022/09/16 08:25:15;;;;;;;3.20;0.75;;;12.90;99.90;;;;;;5061124;28;20021;-45
2022/09/16 08:27:41;;;;;;;4.47;1.20;;;12.80;99.90;;;;;;5060881;28;20029;-46
2022/09/16 08:30:07;;;;;;;4.20;0.98;;;12.60;99.90;;;;;;5041798;28;20024;-45
2022/09/16 08:32:32;;;;;;;3.05;0.90;;;12.40;99.90;;;;;;5066125;28;20025;-45
2022/09/16 08:34:58;;;;;;;6.80;1.77;;;12.30;99.90;;;;;;5062583;28;20055;-46
2022/09/16 08:37:24;;;;;;;4.13;1.35;;;12.20;99.90;;;;;;5064932;28;20025;-46
2022/09/16 08:39:50;;;;;;;3.40;1.35;;;12.30;99.90;;;;;;5062460;28;20033;-46
2022/09/16 08:42:42;;;;;;;5.75;1.48;;;12.40;99.90;;;;;;5064168;28;20525;-46
2022/09/16 08:45:40;;;;;;;5.72;1.35;;;12.60;99.90;;;;;;5062989;28;20021;-46
2022/09/16 08:48:18;;;;;;;1.98;0.88;;;12.80;99.90;;;;;;5031179;28;20094;-46
2022/09/16 08:50:45;;;;;;;4.47;1.17;;;12.70;99.90;;;;;;5064565;28;20028;-46
2022/09/16 08:53:20;;;;;;;4.00;1.00;;;12.60;99.90;;;;;;5054736;28;20157;-45
2022/09/16 08:55:49;;;;;;;10.88;1.52;;;12.50;99.90;;;;;;5057608;28;20032;-47
2022/09/16 08:58:34;;;;;;;10.10;2.17;;;12.40;99.90;;;;;;5051707;28;20020;-45
2022/09/16 09:01:10;;;;;;;2.22;0.82;;;12.30;99.90;;;;;;5059906;28;20025;-49
2022/09/16 09:03:41;;;;;;;8.38;1.35;;;12.30;99.90;;;;;;5061273;28;20518;-47
2022/09/16 09:06:26;;;;;;;3.92;1.40;;;12.30;99.90;;;;;;5067844;28;20067;-46
2022/09/16 09:09:22;;;;;;;6.10;1.27;;;12.40;99.90;;;;;;5058297;28;20021;-45
2022/09/16 09:12:13;;;;;;;4.57;1.20;;;12.50;99.90;;;;;;5063668;28;20035;-46
2022/09/16 09:14:56;;;;;;;5.30;1.38;;;12.80;99.90;;;;;;5057894;28;20024;-46
2022/09/16 09:17:56;;;;;;;2.42;1.35;;;12.90;99.90;;;;;;5056582;28;20025;-46
2022/09/16 09:20:48;;;;;;;6.20;1.40;;;13.00;99.90;;;;;;5057713;28;20387;-47
2022/09/16 09:23:17;;;;;;;8.63;1.55;;;13.00;99.90;;;;;;5053131;28;20386;-47
2022/09/16 09:26:02;;;;;;;3.42;0.73;;;12.90;99.90;;;;;;5061078;28;20068;-46
2022/09/16 09:29:00;;;;;;;5.72;0.93;;;12.80;99.90;;;;;;5051803;28;20025;-45
2022/09/16 09:31:51;;;;;;;5.70;1.80;;;12.90;99.90;;;;;;5054006;28;20048;-46
2022/09/16 09:34:31;;;;;;;7.78;1.52;;;13.10;99.90;;;;;;5062613;28;20103;-49
2022/09/16 09:37:18;;;;;;;4.22;1.35;;;13.20;99.90;;;;;;5062994;28;20058;-45
2022/09/16 09:39:54;;;;;;;7.65;1.67;;;13.30;99.90;;;;;;5063647;28;20491;-46
2022/09/16 09:43:04;;;;;;;3.58;2.05;;;13.30;99.90;;;;;;5054808;28;20118;-46
2022/09/16 09:45:42;;;;;;;7.25;1.48;;;13.40;99.90;;;;;;5053028;28;20115;-50
2022/09/16 09:48:22;;;;;;;6.45;1.60;;;13.50;99.90;;;;;;5062461;28;20028;-47
2022/09/16 09:50:50;;;;;;;6.90;1.42;;;13.60;99.90;;;;;;5063103;28;20029;-46
2022/09/16 09:53:24;;;;;;;5.57;1.17;;;13.80;99.90;;;;;;5052038;28;20027;-47
2022/09/16 09:55:59;;;;;;;9.52;1.83;;;14.00;99.90;;;;;;5063436;28;20515;-48
2022/09/16 09:58:36;;;;;;;6.97;1.63;;;14.20;99.90;;;;;;5063686;28;20505;-45
2022/09/16 10:01:02;;;;;;;6.88;1.00;;;14.30;99.90;;;;;;5061679;28;20259;-47
2022/09/16 10:03:30;;;;;;;4.53;1.30;;;14.50;99.90;;;;;;5064560;28;20410;-48
2022/09/16 10:05:56;;;;;;;2.85;0.93;;;14.60;99.90;;;;;;5062230;28;20601;-48
2022/09/16 10:08:37;;;;;;;5.70;1.15;;;14.60;99.90;;;;;;5064455;28;20107;-47
2022/09/16 10:11:20;;;;;;;2.25;0.90;;;14.50;99.90;;;;;;5061429;28;20043;-46
2022/09/16 10:13:49;;;;;;;3.28;1.05;;;14.50;99.90;;;;;;5055758;28;20036;-47
2022/09/16 10:16:19;;;;;;;5.55;0.82;;;14.40;99.90;;;;;;5053371;28;20546;-45
2022/09/16 10:18:55;;;;;;;6.80;1.33;;;14.40;99.90;;;;;;5055469;28;20185;-48
2022/09/16 10:21:20;;;;;;;3.40;1.17;;;14.50;99.90;;;;;;5053043;28;20070;-47
2022/09/16 10:23:54;;;;;;;1.95;0.75;;;14.40;99.90;;;;;;5059461;28;20435;-46
2022/09/16 10:26:23;;;;;;;3.75;0.85;;;14.40;99.90;;;;;;5052351;28;20052;-45
2022/09/16 10:29:03;;;;;;;4.90;1.10;;;14.40;99.90;;;;;;5059358;28;20021;-46
2022/09/16 10:31:35;;;;;;;7.75;1.55;;;14.40;99.90;;;;;;5062814;28;20062;-46
2022/09/16 10:34:02;;;;;;;6.70;1.27;;;14.40;99.90;;;;;;5060922;28;20416;-47
2022/09/16 10:36:33;;;;;;;3.97;1.27;;;14.40;99.90;;;;;;5063073;28;20028;-46
2022/09/16 10:39:01;;;;;;;5.63;1.30;;;14.50;99.90;;;;;;5061915;28;20028;-45
2022/09/16 10:41:28;;;;;;;4.13;1.25;;;14.50;99.90;;;;;;5062582;28;20099;-45
2022/09/16 10:44:13;;;;;;;4.07;1.05;;;14.50;99.90;;;;;;5059984;28;20025;-47
2022/09/16 10:46:57;;;;;;;3.83;1.10;;;14.70;99.90;;;;;;5062778;28;20028;-44
2022/09/16 10:49:32;;;;;;;6.82;1.02;;;14.90;99.90;;;;;;5055236;28;20038;-47
2022/09/16 10:52:21;;;;;;;5.93;1.40;;;15.00;99.90;;;;;;5060846;28;20025;-45
2022/09/16 10:54:47;;;;;;;5.90;1.63;;;15.10;99.90;;;;;;5061683;28;20346;-46
2022/09/16 10:57:28;;;;;;;5.50;1.20;;;15.10;99.90;;;;;;5058938;28;20023;-46
2022/09/16 10:59:57;;;;;;;3.35;1.05;;;15.10;99.90;;;;;;5059606;28;20021;-45
2022/09/16 11:02:53;;;;;;;3.42;1.20;;;15.00;99.90;;;;;;5060986;28;20024;-46
2022/09/16 11:05:50;;;;;;;5.65;0.95;;;14.80;99.90;;;;;;5051807;28;20082;-44
2022/09/16 11:08:56;;;;;;;4.00;1.30;;;14.40;99.90;;;;;;5059956;28;20041;-44
2022/09/16 11:12:06;;;;;;;7.43;1.90;;;14.00;99.90;;;;;;5053660;28;20287;-44
2022/09/16 11:14:50;;;;;;;6.90;2.08;;;13.80;99.90;;;;;;5051007;28;20036;-44
2022/09/16 11:17:40;;;;;;;13.85;1.63;;;13.90;99.90;;;;;;5062573;28;20028;-44
2022/09/16 11:20:25;;;;;;;10.27;1.80;;;13.80;99.90;;;;;;5060944;28;20032;-45
2022/09/16 11:23:17;;;;;;;4.70;1.88;;;13.90;99.90;;;;;;5061380;28;20424;-45
2022/09/16 11:25:55;;;;;;;8.48;1.30;;;13.80;99.90;;;;;;5061310;28;20372;-44
2022/09/16 11:29:04;;;;;;;9.60;1.60;;;13.80;99.90;;;;;;5053678;28;20161;-44
2022/09/16 11:32:04;;;;;;;7.78;1.65;;;13.70;99.90;;;;;;5050244;28;20055;-44
2022/09/16 11:34:48;;;;;;;3.22;1.00;;;13.60;99.90;;;;;;5053483;28;20037;-44
2022/09/16 11:37:22;;;;;;;6.43;1.55;;;13.70;99.90;;;;;;5060722;28;20032;-45
2022/09/16 11:40:05;;;;;;;8.85;1.33;;;13.70;99.90;;;;;;5061471;28;20067;-44
2022/09/16 11:42:54;;;;;;;10.27;2.08;;;13.90;99.90;;;;;;5058526;28;20029;-44
2022/09/16 11:45:44;;;;;;;6.90;1.63;;;14.10;99.90;;;;;;5052978;28;20164;-45
2022/09/16 11:48:12;;;;;;;5.45;0.95;;;14.20;99.90;;;;;;5060854;28;20009;-45
2022/09/16 11:51:02;;;;;;;7.80;1.38;;;14.40;99.90;;;;;;5061210;28;20448;-45
2022/09/16 11:53:46;;;;;;;4.57;1.42;;;14.50;99.90;;;;;;5050181;28;20035;-45
2022/09/16 11:56:45;;;;;;;5.05;1.20;;;14.60;99.90;;;;;;5042756;28;20032;-45
2022/09/16 11:59:19;;;;;;;4.93;1.17;;;14.80;99.90;;;;;;5058042;28;20107;-44
2022/09/16 12:02:11;;;;;;;7.18;0.95;;;14.80;99.90;;;;;;5053319;28;20112;-45
2022/09/16 12:04:56;;;;;;;6.53;1.27;;;14.80;99.90;;;;;;5050149;28;20520;-46
2022/09/16 12:07:29;;;;;;;4.25;1.15;;;14.80;99.90;;;;;;5050404;28;20099;-48
2022/09/16 12:10:14;;;;;;;2.85;1.00;;;14.80;99.90;;;;;;5059699;28;20024;-45
2022/09/16 12:12:45;;;;;;;5.72;1.10;;;14.70;99.90;;;;;;5060638;28;20031;-47
2022/09/16 12:15:28;;;;;;;6.75;1.85;;;14.50;99.90;;;;;;5060112;28;20426;-45
2022/09/16 12:18:19;;;;;;;3.50;1.05;;;14.50;99.90;;;;;;5059958;28;20051;-46
2022/09/16 12:20:50;;;;;;;2.50;0.65;;;14.20;99.90;;;;;;5053007;28;20040;-46
2022/09/16 12:23:29;;;;;;;6.05;0.60;;;14.00;99.90;;;;;;5052348;28;20093;-49
2022/09/16 12:26:10;;;;;;;7.18;1.10;;;13.80;99.90;;;;;;5058409;28;20118;-45
2022/09/16 12:28:42;;;;;;;4.78;0.80;;;13.70;99.90;;;;;;5061702;28;20497;-46
2022/09/16 12:31:35;;;;;;;4.25;0.80;;;13.70;99.90;;;;;;5060343;28;20122;-46
2022/09/16 12:34:10;;;;;;;3.33;1.08;;;13.60;99.90;;;;;;5060251;28;20055;-47
2022/09/16 12:36:40;;;;;;;5.20;0.77;;;13.70;99.90;;;;;;5060880;28;20107;-46
2022/09/16 12:39:08;;;;;;;7.95;1.50;;;13.80;99.90;;;;;;5058821;28;20111;-46
2022/09/16 12:41:42;;;;;;;4.32;1.08;;;13.90;99.90;;;;;;5060534;28;20020;-46
2022/09/16 12:44:51;;;;;;;5.57;1.30;;;14.10;99.90;;;;;;5059082;28;20017;-47
2022/09/16 12:47:53;;;;;;;4.47;0.88;;;14.40;99.90;;;;;;5053123;28;20009;-47
2022/09/16 12:50:37;;;;;;;3.97;0.70;;;14.50;99.90;;;;;;5050171;28;20103;-46
2022/09/16 12:53:21;;;;;;;5.65;1.13;;;14.60;99.90;;;;;;5057182;28;20387;-47
2022/09/16 12:55:55;;;;;;;3.75;1.13;;;14.60;99.90;;;;;;5058784;28;20036;-46
2022/09/16 12:58:36;;;;;;;4.35;0.98;;;14.50;99.90;;;;;;5497375;22;20013;-52
2022/09/16 13:01:38;;;;;;;4.65;1.05;;;14.30;99.90;;;;;;5017979;28;20064;-54
2022/09/16 13:04:26;;;;;;;4.25;0.70;;;14.20;99.90;;;;;;5025638;28;20057;-55
2022/09/16 13:06:57;;;;;;;4.15;1.42;;;13.90;99.90;;;;;;5015158;28;20044;-51
2022/09/16 13:09:37;;;;;;;3.65;0.98;;;13.80;99.90;;;;;;5024409;28;20076;-52
2022/09/16 13:12:16;;;;;;;3.83;0.73;;;13.80;99.90;;;;;;5017905;28;20022;-52
2022/09/16 13:14:46;;;;;;;2.85;0.45;;;13.80;99.90;;;;;;5020056;28;20369;-52
2022/09/16 13:17:12;;;;;;;3.47;0.70;;;13.80;99.90;;;;;;5022220;28;20068;-51
2022/09/16 13:19:49;;;;;;;4.97;0.80;;;13.70;99.90;;;;;;5024801;28;20041;-56
2022/09/16 13:22:34;;;;;;;6.95;0.82;;;13.70;99.90;;;;;;5013219;28;20018;-53
2022/09/16 13:25:13;;;;;;;7.57;1.13;;;13.60;99.90;;;;;;5024252;28;20568;-53
2022/09/16 13:27:51;;;;;;;6.25;1.00;;;13.50;99.90;;;;;;5024611;28;20017;-52